TimeEST,TemperatureF,Dew PointF,Humidity,Sea Level PressureIn,VisibilityMPH,Wind Direction,Wind SpeedMPH,Gust SpeedMPH,PrecipitationIn,Events,Conditions,WindDirDegrees,DateUTC
12:30 AM,35.6,32.0,87,29.71,10.0,SW,6.9,-,N/A,,Overcast,230,2012-12-19 05:30:00
12:53 AM,36.0,33.1,89,29.74,10.0,SW,6.9,-,N/A,,Overcast,230,2012-12-19 05:53:00
1:53 AM,36.0,33.1,89,29.74,10.0,SW,4.6,-,N/A,,Overcast,220,2012-12-19 06:53:00
2:53 AM,36.0,32.0,86,29.75,10.0,WNW,3.5,-,N/A,,Overcast,290,2012-12-19 07:53:00
3:53 AM,36.0,28.9,76,29.76,10.0,West,5.8,-,N/A,,Mostly Cloudy,280,2012-12-19 08:53:00
4:53 AM,34.0,27.0,75,29.78,10.0,West,4.6,-,N/A,,Clear,260,2012-12-19 09:53:00
5:53 AM,30.9,27.0,85,29.82,10.0,Calm,Calm,-,N/A,,Clear,0,2012-12-19 10:53:00
6:53 AM,30.0,27.0,88,29.84,10.0,Calm,Calm,-,N/A,,Clear,0,2012-12-19 11:53:00
7:53 AM,30.0,27.0,88,29.86,10.0,West,4.6,-,N/A,,Clear,270,2012-12-19 12:53:00
8:53 AM,34.0,28.0,79,29.88,10.0,SW,6.9,-,N/A,,Clear,220,2012-12-19 13:53:00
9:53 AM,37.0,28.9,73,29.91,10.0,West,8.1,-,N/A,,Clear,270,2012-12-19 14:53:00
10:53 AM,39.0,28.0,65,29.93,10.0,NW,11.5,17.3,N/A,,Scattered Clouds,310,2012-12-19 15:53:00
11:53 AM,39.0,28.0,65,29.95,10.0,NW,9.2,-,N/A,,Overcast,310,2012-12-19 16:53:00
12:53 PM,39.9,27.0,60,29.97,10.0,WNW,6.9,-,N/A,,Overcast,300,2012-12-19 17:53:00
1:53 PM,39.9,28.0,63,29.98,10.0,West,8.1,-,N/A,,Overcast,270,2012-12-19 18:53:00
2:53 PM,41.0,26.1,55,30.00,10.0,NW,11.5,19.6,N/A,,Mostly Cloudy,310,2012-12-19 19:53:00
3:53 PM,39.9,26.1,58,30.02,10.0,Variable,5.8,-,N/A,,Mostly Cloudy,0,2012-12-19 20:53:00
4:53 PM,39.9,26.1,58,30.05,10.0,WNW,3.5,-,N/A,,Mostly Cloudy,300,2012-12-19 21:53:00
5:53 PM,39.0,27.0,62,30.09,10.0,West,3.5,-,N/A,,Overcast,260,2012-12-19 22:53:00
6:53 PM,37.9,28.0,68,30.12,10.0,West,3.5,-,N/A,,Overcast,280,2012-12-19 23:53:00
7:53 PM,34.0,28.9,82,30.12,10.0,Calm,Calm,-,N/A,,Overcast,0,2012-12-20 00:53:00
8:53 PM,33.1,28.0,82,30.14,10.0,Calm,Calm,-,N/A,,Mostly Cloudy,0,2012-12-20 01:53:00
9:51 PM,30.2,28.4,93,30.14,10.0,Calm,Calm,-,N/A,,Overcast,0,2012-12-20 02:51:00
9:53 PM,30.9,28.0,89,30.17,10.0,Calm,Calm,-,N/A,,Overcast,0,2012-12-20 02:53:00
10:29 PM,33.8,28.4,81,30.15,10.0,Calm,Calm,-,N/A,,Mostly Cloudy,0,2012-12-20 03:29:00
10:53 PM,33.1,28.0,82,30.18,10.0,Calm,Calm,-,N/A,,Overcast,0,2012-12-20 03:53:00
11:53 PM,33.1,28.9,85,30.19,10.0,SW,4.6,-,N/A,,Overcast,220,2012-12-20 04:53:00